Flight Track Log - Related Links

Times and Time Zones

All times are in EDT time to prevent confusion due to time zone crossing. See the MJI22 flight status page for this flight to view local times or setup timezone preferences in your user account.

Time Position Orientation Groundspeed Altitude Reporting Facility
EDT Latitude Longitude Course Direction KTS MPH feet Rate Location/Type
Mon 09:16:16 AM 44.3853 -68.4919 251° West 237 273 6,500  Level Boston Center
Mon 09:17:17 AM 44.3575 -68.5925 249° West 260 299 9,600 3,372 Climbing Boston Center
Mon 09:18:17 AM 44.3258 -68.7047 249° West 294 338 13,300 3,500 Climbing Boston Center
Mon 09:19:17 AM 44.2939 -68.8169 248° West 308 354 16,600 2,777 Climbing Boston Center
Mon 09:20:18 AM 44.2600 -68.9381 249° West 324 373 18,900 2,521 Climbing Boston Center
Mon 09:21:00 AM 44.2479 -69.0420 251° West  Level FlightAware Approximate
Mon 09:21:16 AM 44.2242 -69.0647 248° West 334 384 21,600  Level Boston Center
Mon 09:22:17 AM 44.1900 -69.1797 248° West 340 391 24,400 2,656 Climbing Boston Center
Mon 09:23:18 AM 44.1542 -69.3119 249° West 340 391 27,000 2,182 Climbing Boston Center
Mon 09:24:18 AM 44.1236 -69.4175 248° West 333 383 28,800 1,373 Climbing Boston Center
Mon 09:25:16 AM 44.0856 -69.5525 249° West 340 391 29,700 605 Climbing Boston Center
Mon 09:26:17 AM 44.0508 -69.6728 248° West 361 415 30,000 148 Climbing Boston Center
Mon 09:27:18 AM 44.0044 -69.8278 247° West 386 444 30,000  Level Boston Center
Mon 09:28:18 AM 43.9678 -69.9592 249° West 402 463 30,000  Level Boston Center
Mon 09:29:18 AM 43.9192 -70.1228 248° West 411 473 30,000  Level Boston Center
Mon 09:30:16 AM 43.8878 -70.2275 247° West 417 480 30,000  Level Boston Center
Mon 09:31:16 AM 43.8292 -70.4283 248° West 427 491 30,000  Level Boston Center
Mon 09:32:17 AM 43.7836 -70.5708 246° West 434 499 30,000  Level Boston Center
Mon 09:33:18 AM 43.7381 -70.7217 247° West 428 493 30,000  Level Boston Center
Mon 09:34:18 AM 43.6942 -70.8667 247° West 423 487 30,000  Level Boston Center
Mon 09:35:19 AM 43.6564 -70.9967 248° West 423 487 30,000  Level Boston Center
Mon 09:36:16 AM 43.6103 -71.1469 247° West 418 481 30,000  Level Boston Center
Mon 09:37:17 AM 43.5578 -71.3142 247° West 423 487 30,000  Level Boston Center
Mon 09:38:17 AM 43.5111 -71.4611 246° West 423 487 30,000  Level Boston Center
Mon 09:39:17 AM 43.4644 -71.6078 246° West 423 487 30,000  Level Boston Center
Mon 09:40:16 AM 43.4256 -71.7283 246° West 423 487 30,000  Level Boston Center
Mon 09:41:17 AM 43.3683 -71.9117 247° West 428 493 30,000  Level Boston Center
Mon 09:42:17 AM 43.3208 -72.0606 246° West 428 493 30,000  Level Boston Center
Mon 09:43:18 AM 43.2733 -72.2092 246° West 428 493 30,000 -353 Level Boston Center
Mon 09:44:16 AM 43.2256 -72.3603 247° West 428 493 29,300 -807 Descending Boston Center
Mon 09:45:17 AM 43.1861 -72.4772 245° Southwest 433 498 28,400 -1,091 Descending Boston Center
Mon 09:46:17 AM 43.1317 -72.6478 246° West 438 504 27,100 -1,250 Descending Boston Center
Mon 09:47:17 AM 43.0833 -72.7983 246° West 443 510 25,900 -1,190 Descending Boston Center
Mon 09:48:18 AM 43.0328 -72.9486 245° Southwest 438 504 24,700 -893 Descending Boston Center
Mon 09:49:18 AM 42.9778 -73.1156 246° West 438 504 24,100 -807 Descending Boston Center
Mon 09:50:17 AM 42.9267 -73.2681 245° Southwest 438 504 23,100 -1,059 Descending Boston Center
Mon 09:51:17 AM 42.8733 -73.4175 244° Southwest 438 504 22,000 -793 Descending Boston Center
Mon 09:52:18 AM 42.8142 -73.5353 236° Southwest 438 504 21,500 -1,289 Descending Boston Center
Mon 09:53:18 AM 42.6928 -73.5783 195° South 421 484 19,400 -1,850 Descending Boston Center
Mon 09:54:18 AM 42.5714 -73.6269 196° South 449 517 17,800 -1,563 Descending Boston Center
Mon 09:55:17 AM 42.4394 -73.6778 196° South 456 525 16,300 -1,361 Descending Boston Center
Mon 09:56:17 AM 42.3222 -73.7233 196° South 456 525 15,100 -1,377 Descending Boston Center
Mon 09:57:19 AM 42.2072 -73.7658 195° South 438 504 13,500 -1,300 Descending Boston Center
Mon 09:58:17 AM 42.0942 -73.8083 196° South 433 498 12,500 -763 Descending Boston Center
Mon 09:59:17 AM 41.9794 -73.8169 183° South 426 490 12,000 -298 Descending Boston Center
Mon 10:00:18 AM 41.8647 -73.8228 182° South 426 490 11,900 -446 Descending Boston Center
Mon 10:01:18 AM 41.7769 -73.8375 187° South 371 427 11,100 -1,300 Descending Boston Center
Mon 10:02:18 AM 41.6956 -73.8469 185° South 313 360 9,300 -1,831 Descending Boston Center
Mon 10:03:16 AM 41.6161 -73.8561 185° South 292 336 7,500 -1,325 Descending Boston Center
Mon 10:04:52 AM 41.4833 -73.8667 183° South 288 331 5,900 -1,115 Descending New York TRACON
Mon 10:05:52 AM 41.4167 -73.8667 180° South 295 339 4,600 -1,300 Descending New York TRACON
Mon 10:06:52 AM 41.3500 -73.8000 143° Southeast 289 333 3,300 -800 Descending New York TRACON
Mon 10:07:52 AM 41.2833 -73.7333 143° Southeast 285 328 3,000 -150 Descending New York TRACON
Mon 10:08:52 AM 41.2167 -73.6833 151° Southeast 266 306 3,000  Level New York TRACON
Mon 10:09:58 AM 41.1500 -73.6333 151° Southeast 222 255 3,000  Level New York TRACON
Mon 10:10:58 AM 41.1000 -73.6000 153° Southeast 189 217 3,000  Level New York TRACON
Mon 10:11:58 AM 41.0667 -73.5667 143° Southeast 195 224 3,000 -333 Level New York TRACON
Mon 10:13:04 AM 41.0000 -73.5667 180° South 165 190 2,300 -429 Descending New York TRACON
Mon 10:14:04 AM 40.9833 -73.6167 246° West 167 192 2,100 -400 Descending New York TRACON
Mon 10:15:04 AM 41.0000 -73.6667 294° West 149 171 1,500 -579 Descending New York TRACON
Mon 10:15:58 AM 41.0333 -73.6833 339° North 126 145 1,000 -556 Descending New York TRACON
Mon 10:17:00 AM 41.0667 -73.7000 246° West  Level FlightAware Approximate
Mon 10:24:00 AM 41.0669 -73.7076 246° West  Level Estimated
Mon 10:25:00 AM 41.0667 -73.7000 246° West  Level FlightAware Approximate
Mon 10:26:00 AM 41.0669 -73.7076 246° West  Level Estimated

Login

Don't have an account? Register now (free) for customized features, flight alerts, and more!